Time;durP1;ratioP1;P1;durP2;ratioP2;P2;SDS_P1;SDS_P2;PMS_P1;PMS_P2;Temp;Humidity;BMP_temperature;BMP_pressure;BME280_temperature;BME280_humidity;BME280_pressure;Samples;Min_cycle;Max_cycle;Signal;HPM_P1;HPM_P2
2022/07/04 00:00:14;;;;;;;9.90;6.80;;;;;;;17.04;75.81;99749.84;104102;1274;140263;-55
2022/07/04 00:02:42;;;;;;;10.30;6.60;;;;;;;17.03;76.22;99753.10;104181;1275;22578;-55
2022/07/04 00:05:10;;;;;;;9.40;6.50;;;;;;;17.02;76.36;99753.45;104237;1274;141282;-55
2022/07/04 00:07:38;;;;;;;9.50;6.40;;;;;;;16.98;76.44;99756.30;104274;1277;25050;-55
2022/07/04 00:10:06;;;;;;;11.40;8.00;;;;;;;16.98;76.51;99764.13;104062;1277;22594;-56
2022/07/04 00:12:33;;;;;;;11.20;7.50;;;;;;;16.98;76.76;99767.65;104062;1274;138386;-56
2022/07/04 00:15:00;;;;;;;10.60;7.60;;;;;;;16.98;76.94;99766.66;104209;1274;22731;-55
2022/07/04 00:17:27;;;;;;;9.10;7.10;;;;;;;16.99;76.86;99764.52;103982;1275;139400;-55
2022/07/04 00:19:54;;;;;;;14.40;7.10;;;;;;;16.99;76.81;99767.42;104126;1274;22613;-55
2022/07/04 00:22:21;;;;;;;9.80;7.00;;;;;;;16.95;76.74;99762.55;104057;1277;22562;-55
2022/07/04 00:24:48;;;;;;;18.40;7.10;;;;;;;16.90;76.65;99755.96;104219;1274;23060;-56
2022/07/04 00:27:15;;;;;;;9.70;7.10;;;;;;;16.86;76.77;99757.90;104148;1274;22632;-55
2022/07/04 00:29:42;;;;;;;11.20;7.30;;;;;;;16.84;76.99;99761.42;104116;1274;140889;-55
2022/07/04 00:32:08;;;;;;;10.70;6.80;;;;;;;16.83;76.89;99766.02;104017;1274;245147;-55
2022/07/04 00:37:17;;;;;;;8.60;7.30;;;;;;;16.76;76.88;99762.30;101273;1308;558009;-55
2022/07/04 00:39:44;;;;;;;14.90;8.00;;;;;;;16.71;77.30;99759.77;103709;1283;25322;-56
2022/07/04 00:42:11;;;;;;;11.50;7.40;;;;;;;16.68;77.38;99762.33;103366;1283;138777;-55
2022/07/04 00:44:37;;;;;;;11.00;7.20;;;;;;;16.67;77.50;99760.25;103370;1285;23031;-55
2022/07/04 00:47:05;;;;;;;10.70;6.20;;;;;;;16.65;77.53;99758.95;103301;1286;137665;-55
2022/07/04 00:49:32;;;;;;;13.20;7.10;;;;;;;16.63;77.56;99757.09;103285;1286;243600;-54
2022/07/04 00:52:01;;;;;;;12.10;7.20;;;;;;;16.60;77.68;99758.41;104195;1276;22617;-54
2022/07/04 00:54:29;;;;;;;11.10;6.80;;;;;;;16.57;77.90;99757.14;104138;1276;137689;-55
2022/07/04 00:56:56;;;;;;;9.50;6.70;;;;;;;16.57;78.02;99757.64;104214;1276;24395;-54
2022/07/04 00:59:23;;;;;;;12.00;7.40;;;;;;;16.57;78.16;99756.65;104066;1276;139049;-54
2022/07/04 01:01:50;;;;;;;10.60;7.10;;;;;;;16.54;78.06;99753.77;104066;1276;23857;-55
2022/07/04 01:04:17;;;;;;;10.50;7.60;;;;;;;16.54;78.32;99754.59;104119;1276;22726;-60
2022/07/04 01:06:47;;;;;;;9.50;7.10;;;;;;;16.53;78.35;99758.77;104107;1276;139202;-55
2022/07/04 01:09:13;;;;;;;12.50;6.90;;;;;;;16.52;78.46;99753.77;104219;1277;23010;-55
2022/07/04 01:11:40;;;;;;;8.90;6.80;;;;;;;16.51;78.45;99753.52;107708;1278;137907;-56
2022/07/04 01:14:11;;;;;;;11.10;7.60;;;;;;;16.50;78.61;99753.48;107867;1276;22504;-56
2022/07/04 01:16:38;;;;;;;9.20;6.50;;;;;;;16.49;78.62;99750.83;107873;1276;139628;-56
2022/07/04 01:19:05;;;;;;;13.60;7.50;;;;;;;16.49;78.62;99750.63;107951;1276;24671;-56
2022/07/04 01:21:33;;;;;;;8.90;6.80;;;;;;;16.48;78.72;99752.77;107945;1276;23963;-56
2022/07/04 01:24:00;;;;;;;7.90;6.30;;;;;;;16.47;78.66;99752.34;107859;1276;139786;-56
2022/07/04 01:26:30;;;;;;;9.00;7.00;;;;;;;16.47;78.77;99759.48;107893;1276;22441;-56
2022/07/04 01:28:57;;;;;;;12.00;7.70;;;;;;;16.48;78.84;99765.80;107894;1276;138662;-56
2022/07/04 01:31:23;;;;;;;10.10;7.60;;;;;;;16.50;79.00;99759.52;107925;1277;23550;-56
2022/07/04 01:33:50;;;;;;;9.80;7.10;;;;;;;16.54;79.14;99754.37;107892;1277;22436;-56
2022/07/04 01:36:18;;;;;;;9.60;6.80;;;;;;;16.58;79.08;99754.70;107835;1277;138539;-55
2022/07/04 01:38:44;;;;;;;9.70;7.00;;;;;;;16.62;79.02;99761.27;107943;1277;22477;-56
2022/07/04 01:41:11;;;;;;;9.40;7.30;;;;;;;16.66;78.86;99768.79;107782;1278;139459;-55
2022/07/04 01:43:38;;;;;;;10.60;7.00;;;;;;;16.69;78.74;99765.73;107995;1277;23710;-55
2022/07/04 01:46:04;;;;;;;13.20;7.30;;;;;;;16.69;78.55;99764.91;107946;1276;22453;-55
2022/07/04 01:48:31;;;;;;;10.10;7.10;;;;;;;16.72;78.47;99761.96;107809;1277;139223;-55
2022/07/04 01:50:59;;;;;;;9.80;6.60;;;;;;;16.74;78.36;99761.75;107906;1276;23262;-56
2022/07/04 01:53:26;;;;;;;12.50;8.20;;;;;;;16.73;78.00;99759.69;107737;1276;137664;-55
2022/07/04 01:55:53;;;;;;;12.00;7.30;;;;;;;16.71;78.11;99763.40;107915;1276;24686;-55
2022/07/04 01:58:20;;;;;;;10.60;7.20;;;;;;;16.70;77.97;99766.27;107965;1276;23485;-55
2022/07/04 02:03:31;;;;;;;10.20;7.10;;;;;;;16.67;78.15;99765.77;107888;1276;22584;-55
2022/07/04 02:05:58;;;;;;;13.10;8.70;;;;;;;16.66;78.13;99767.64;108091;1273;139401;-55
2022/07/04 02:09:14;;;;;;;14.20;8.90;;;;;;;16.65;78.19;99769.85;108164;1273;22483;-55
2022/07/04 02:11:11;;;;;;;10.90;8.10;;;;;;;16.62;78.36;99769.80;108091;1273;138138;-55
2022/07/04 02:13:38;;;;;;;11.70;8.60;;;;;;;16.62;78.49;99772.38;108109;1273;22392;-55
2022/07/04 02:16:04;;;;;;;;;;;;;;;16.64;78.52;99776.02;108132;1273;22553;-57
2022/07/04 02:18:31;;;;;;;12.90;8.80;;;;;;;16.65;78.57;99770.34;108020;1273;126007;-55
2022/07/04 02:20:58;;;;;;;;;;;;;;;16.65;78.64;99766.71;108147;1273;22557;-55
2022/07/04 02:23:24;;;;;;;15.60;8.50;;;;;;;16.65;78.46;99768.31;108072;1273;125319;-55
2022/07/04 02:25:51;;;;;;;15.90;8.70;;;;;;;16.59;78.22;99769.71;108140;1273;23808;-55
2022/07/04 02:28:18;;;;;;;12.10;9.00;;;;;;;16.59;78.32;99770.27;108143;1273;22478;-55
2022/07/04 02:30:44;;;;;;;17.10;9.20;;;;;;;16.57;78.62;99770.02;108011;1273;138594;-55
2022/07/04 02:33:12;;;;;;;10.20;7.90;;;;;;;16.58;78.80;99767.20;108167;1273;22501;-55
2022/07/04 02:35:39;;;;;;;14.30;8.70;;;;;;;16.61;79.00;99768.96;108024;1273;138689;-55
2022/07/04 02:38:06;;;;;;;14.10;8.90;;;;;;;16.63;79.04;99766.99;108161;1273;22403;-55
2022/07/04 02:40:32;;;;;;;9.70;8.40;;;;;;;16.65;78.94;99766.98;108024;1273;137998;-55
2022/07/04 02:42:59;;;;;;;13.60;9.10;;;;;;;16.64;78.80;99768.09;108097;1273;24293;-56
2022/07/04 02:45:25;;;;;;;9.90;8.70;;;;;;;16.63;79.01;99769.19;108136;1273;23821;-55
2022/07/04 02:47:52;;;;;;;14.30;9.10;;;;;;;16.64;79.10;99775.35;108059;1273;140005;-56
2022/07/04 02:50:19;;;;;;;15.90;8.40;;;;;;;16.64;79.22;99770.85;108150;1273;22435;-56
2022/07/04 02:52:46;;;;;;;14.80;10.10;;;;;;;16.68;79.36;99773.01;108027;1273;138453;-55
2022/07/04 02:55:12;;;;;;;16.30;9.10;;;;;;;16.71;79.47;99773.27;108154;1274;22629;-56
2022/07/04 02:57:39;;;;;;;15.00;9.00;;;;;;;16.74;79.64;99771.50;108162;1274;23996;-55
2022/07/04 03:00:06;;;;;;;12.80;8.50;;;;;;;16.78;79.76;99770.30;108025;1274;138550;-56
2022/07/04 03:02:33;;;;;;;13.70;8.70;;;;;;;16.86;79.86;99773.73;108149;1273;22426;-56
2022/07/04 03:05:01;;;;;;;10.60;8.50;;;;;;;16.91;79.92;99772.46;108023;1273;139758;-55
2022/07/04 03:07:28;;;;;;;10.70;8.20;;;;;;;16.95;79.94;99774.12;108130;1274;22414;-55
2022/07/04 03:09:55;;;;;;;10.70;8.20;;;;;;;17.00;79.89;99775.66;108180;1274;23820;-55
2022/07/04 03:12:22;;;;;;;13.20;7.60;;;;;;;17.03;79.89;99777.50;107906;1274;138003;-55
2022/07/04 03:14:48;;;;;;;12.70;8.20;;;;;;;17.07;79.91;99779.86;108151;1274;22415;-55
2022/07/04 03:17:19;;;;;;;13.30;9.30;;;;;;;17.11;80.10;99782.79;108044;1274;140379;-55
2022/07/04 03:19:46;;;;;;;9.90;8.60;;;;;;;17.16;80.21;99779.80;108112;1273;23584;-55
2022/07/04 03:22:13;;;;;;;11.80;9.00;;;;;;;17.23;80.03;99778.84;108163;1273;22475;-56
2022/07/04 03:24:39;;;;;;;15.70;10.10;;;;;;;17.28;79.84;99777.49;108010;1274;138691;-56
2022/07/04 03:27:06;;;;;;;11.70;9.10;;;;;;;17.37;79.60;99780.02;108191;1273;22979;-56
2022/07/04 03:29:33;;;;;;;11.10;9.20;;;;;;;17.45;79.21;99782.73;108045;1274;139458;-56
2022/07/04 03:32:00;;;;;;;11.80;8.40;;;;;;;17.54;78.98;99779.63;108148;1274;22422;-56
2022/07/04 03:34:27;;;;;;;13.70;8.50;;;;;;;17.65;78.97;99780.31;108021;1274;138666;-56
2022/07/04 03:36:53;;;;;;;15.20;8.50;;;;;;;17.74;78.93;99778.52;108130;1273;23771;-56
2022/07/04 03:39:21;;;;;;;10.80;8.40;;;;;;;17.85;78.77;99781.60;108179;1273;22413;-56
2022/07/04 03:41:48;;;;;;;10.00;8.30;;;;;;;17.95;78.68;99781.72;107993;1273;140435;-55
2022/07/04 03:44:14;;;;;;;11.60;8.20;;;;;;;18.05;78.45;99781.23;108193;1273;22388;-55
2022/07/04 03:46:41;;;;;;;12.60;7.90;;;;;;;18.16;78.37;99779.77;108042;1273;139543;-55
2022/07/04 03:49:08;;;;;;;14.40;8.70;;;;;;;18.26;78.16;99776.52;108166;1273;22523;-55
2022/07/04 03:51:35;;;;;;;15.60;8.10;;;;;;;18.35;77.69;99767.36;108125;1274;22437;-55
2022/07/04 03:54:02;;;;;;;11.60;9.10;;;;;;;18.44;77.10;99764.44;108020;1273;138632;-55
2022/07/04 03:56:30;;;;;;;13.40;8.80;;;;;;;18.54;76.81;99760.95;108194;1273;22495;-55
2022/07/04 03:58:57;;;;;;;17.00;9.30;;;;;;;18.64;76.45;99759.73;107988;1273;139078;-56
2022/07/04 04:01:23;;;;;;;10.00;8.10;;;;;;;18.73;75.81;99763.20;108152;1273;23260;-56
2022/07/04 04:06:35;;;;;;;11.60;8.30;;;;;;;18.94;75.42;99761.39;108004;1274;139507;-56
2022/07/04 04:09:02;;;;;;;10.30;8.10;;;;;;;19.06;75.72;99759.93;108134;1274;23376;-55
2022/07/04 04:11:36;;;;;;;11.30;8.00;;;;;;;19.17;75.50;99763.95;108047;1273;139103;-56
2022/07/04 04:14:02;;;;;;;14.90;9.00;;;;;;;19.27;75.36;99764.74;108197;1273;23353;-55
2022/07/04 04:16:29;;;;;;;22.80;10.30;;;;;;;19.35;75.01;99757.64;108055;1273;138498;-56
2022/07/04 04:18:56;;;;;;;13.30;8.20;;;;;;;19.44;74.74;99761.27;108170;1273;22615;-55
2022/07/04 04:21:23;;;;;;;17.10;9.70;;;;;;;19.53;74.30;99760.92;108072;1274;25136;-56
2022/07/04 04:23:49;;;;;;;13.50;9.20;;;;;;;19.61;73.75;99755.86;107942;1274;139279;-55
2022/07/04 04:26:17;;;;;;;12.90;9.10;;;;;;;19.69;73.26;99750.98;108069;1274;22456;-55
2022/07/04 04:28:43;;;;;;;14.30;7.90;;;;;;;19.77;72.89;99755.27;107988;1273;139189;-55
2022/07/04 04:31:10;;;;;;;11.60;8.20;;;;;;;19.83;72.50;99752.75;108152;1274;22429;-55
2022/07/04 04:33:37;;;;;;;13.80;7.60;;;;;;;19.90;72.09;99750.70;108177;1273;23642;-55
2022/07/04 04:36:04;;;;;;;10.60;7.00;;;;;;;19.99;71.50;99754.58;108050;1273;137810;-56
2022/07/04 04:38:31;;;;;;;9.60;6.50;;;;;;;20.07;70.83;99756.87;108153;1273;22562;-56
2022/07/04 04:40:58;;;;;;;12.90;6.90;;;;;;;20.15;70.55;99759.44;107915;1273;141316;-55
2022/07/04 04:43:25;;;;;;;8.60;6.40;;;;;;;20.22;69.99;99760.51;108035;1274;22494;-55
2022/07/04 04:45:52;;;;;;;11.60;6.70;;;;;;;20.31;69.54;99758.07;108126;1273;22456;-55
2022/07/04 04:48:18;;;;;;;12.00;6.80;;;;;;;20.40;69.26;99754.20;108085;1273;139648;-55
2022/07/04 04:50:47;;;;;;;8.70;6.50;;;;;;;20.48;69.01;99749.48;108151;1273;24702;-55
2022/07/04 04:53:13;;;;;;;7.80;6.30;;;;;;;20.56;68.59;99749.46;108000;1273;138954;-55
2022/07/04 04:55:40;;;;;;;10.30;6.00;;;;;;;20.64;67.91;99752.40;108159;1273;22424;-56
2022/07/04 04:58:07;;;;;;;8.90;6.60;;;;;;;20.71;67.54;99750.59;108119;1274;22446;-55
2022/07/04 05:00:34;;;;;;;10.60;6.40;;;;;;;20.81;67.07;99756.35;108026;1273;138311;-55
2022/07/04 05:03:00;;;;;;;9.30;5.60;;;;;;;20.89;66.17;99752.70;108122;1274;22485;-54
2022/07/04 05:05:27;;;;;;;10.10;6.00;;;;;;;20.97;65.57;99752.40;108055;1273;138643;-55
2022/07/04 05:07:55;;;;;;;9.00;5.80;;;;;;;21.06;65.45;99755.36;108147;1273;22545;-55
2022/07/04 05:10:22;;;;;;;10.80;6.10;;;;;;;21.15;65.19;99758.19;108152;1274;22463;-55
2022/07/04 05:12:49;;;;;;;8.00;5.70;;;;;;;21.24;64.86;99755.16;108053;1273;138389;-54
2022/07/04 05:15:15;;;;;;;7.90;5.70;;;;;;;21.35;63.74;99753.01;108180;1274;22472;-55
2022/07/04 05:17:42;;;;;;;8.90;4.90;;;;;;;21.52;63.21;99751.83;108035;1273;137839;-55
2022/07/04 05:20:09;;;;;;;10.30;5.20;;;;;;;21.71;62.89;99749.61;108164;1274;23837;-55
2022/07/04 05:22:36;;;;;;;16.90;5.60;;;;;;;21.97;61.98;99744.63;108045;1274;139090;-55
2022/07/04 05:25:03;;;;;;;10.80;5.30;;;;;;;22.31;61.34;99740.89;108162;1274;22513;-55
2022/07/04 05:27:32;;;;;;;8.80;5.60;;;;;;;22.70;60.32;99736.05;108186;1273;22408;-55
2022/07/04 05:29:58;;;;;;;7.80;5.10;;;;;;;23.12;59.24;99733.60;107951;1273;138130;-55
2022/07/04 05:32:25;;;;;;;6.60;5.40;;;;;;;23.61;58.19;99733.64;108165;1273;22479;-56
2022/07/04 05:34:52;;;;;;;6.30;5.10;;;;;;;24.11;56.81;99732.45;108051;1273;139475;-55
2022/07/04 05:37:19;;;;;;;10.20;6.40;;;;;;;24.58;55.04;99732.81;108232;1273;22459;-56
2022/07/04 05:39:45;;;;;;;7.20;5.00;;;;;;;25.03;54.41;99731.13;108184;1274;22467;-55
2022/07/04 05:42:12;;;;;;;5.80;5.10;;;;;;;25.46;52.71;99732.54;108028;1274;137476;-56
2022/07/04 05:44:39;;;;;;;6.40;5.30;;;;;;;25.90;51.79;99730.79;107999;1274;24764;-55
2022/07/04 05:47:05;;;;;;;8.00;4.80;;;;;;;26.34;50.98;99731.47;107950;1274;139198;-57
2022/07/04 05:49:32;;;;;;;5.00;4.50;;;;;;;26.73;49.80;99731.54;108124;1273;23280;-56
2022/07/04 05:51:59;;;;;;;5.60;4.50;;;;;;;27.07;49.23;99729.95;108135;1273;22641;-57
2022/07/04 05:54:25;;;;;;;6.40;4.30;;;;;;;27.38;48.38;99725.77;108052;1273;137135;-57
2022/07/04 05:56:52;;;;;;;5.50;4.20;;;;;;;27.60;47.46;99724.55;108193;1273;23745;-54
2022/07/04 05:59:18;;;;;;;11.10;5.10;;;;;;;27.74;47.00;99726.52;108011;1274;137707;-55
2022/07/04 06:01:46;;;;;;;8.70;4.20;;;;;;;27.83;46.22;99724.63;108125;1274;22457;-55
2022/07/04 06:04:13;;;;;;;6.50;4.80;;;;;;;27.81;45.13;99723.98;108041;1274;22441;-55
2022/07/04 06:06:40;;;;;;;6.80;4.60;;;;;;;27.69;45.39;99723.39;108010;1274;139353;-56
2022/07/04 06:09:06;;;;;;;6.50;4.60;;;;;;;27.57;45.44;99719.83;108114;1274;22438;-55
2022/07/04 06:11:34;;;;;;;9.50;4.60;;;;;;;27.39;45.46;99716.45;108002;1274;137770;-55
2022/07/04 06:14:01;;;;;;;5.60;4.60;;;;;;;27.24;45.53;99716.28;108137;1274;22453;-55
2022/07/04 06:16:27;;;;;;;9.90;4.90;;;;;;;27.08;45.78;99715.19;108033;1273;137947;-55
2022/07/04 06:18:54;;;;;;;7.10;4.60;;;;;;;26.97;46.10;99719.48;108091;1274;22533;-55
2022/07/04 06:21:21;;;;;;;10.40;5.50;;;;;;;26.87;45.67;99716.39;108138;1273;23924;-55
2022/07/04 06:23:47;;;;;;;6.20;4.70;;;;;;;26.78;45.66;99716.42;108025;1274;137371;-55
2022/07/04 06:26:14;;;;;;;7.60;4.60;;;;;;;26.73;45.96;99715.96;108222;1273;22421;-55
2022/07/04 06:28:41;;;;;;;6.10;4.80;;;;;;;26.63;46.15;99713.33;108104;1274;138324;-55
2022/07/04 06:31:14;;;;;;;7.10;5.40;;;;;;;26.54;46.78;99713.65;108212;1274;22522;-55
2022/07/04 06:36:25;;;;;;;7.70;4.90;;;;;;;26.38;47.20;99710.94;107983;1274;138953;-55
2022/07/04 06:38:52;;;;;;;6.90;4.50;;;;;;;26.33;46.97;99707.59;108117;1274;22483;-55
2022/07/04 06:41:18;;;;;;;9.70;5.30;;;;;;;26.25;46.91;99710.95;108053;1274;137762;-55
2022/07/04 06:43:45;;;;;;;8.00;5.00;;;;;;;26.11;46.31;99710.08;108052;1274;22536;-55
2022/07/04 06:46:11;;;;;;;10.20;4.90;;;;;;;25.96;46.85;99710.65;108192;1274;22579;-55
2022/07/04 06:48:39;;;;;;;11.40;4.60;;;;;;;25.88;47.65;99711.81;108027;1274;140130;-55
2022/07/04 06:51:05;;;;;;;11.50;5.10;;;;;;;25.85;47.87;99709.16;108125;1274;22489;-55
2022/07/04 06:53:32;;;;;;;10.50;5.10;;;;;;;25.85;48.22;99708.77;107922;1274;137906;-54
2022/07/04 06:55:59;;;;;;;8.70;5.20;;;;;;;25.83;48.15;99705.13;108200;1274;23652;-55
2022/07/04 06:58:25;;;;;;;12.10;4.70;;;;;;;25.80;48.18;99704.60;108211;1272;22478;-56
2022/07/04 07:00:52;;;;;;;6.00;4.30;;;;;;;25.78;48.63;99701.95;108193;1274;23081;-55
2022/07/04 07:03:19;;;;;;;5.50;4.80;;;;;;;25.80;48.58;99700.92;108195;1273;22463;-55
2022/07/04 07:05:46;;;;;;;7.90;4.90;;;;;;;25.82;48.28;99695.52;107985;1274;139090;-55
2022/07/04 07:08:26;;;;;;;6.50;4.80;;;;;;;25.83;48.09;99690.15;108119;1274;24837;-56
2022/07/04 07:10:53;;;;;;;7.30;5.70;;;;;;;25.85;48.30;99693.95;107987;1274;138531;-56
2022/07/04 07:13:19;;;;;;;10.90;5.10;;;;;;;25.86;47.80;99694.14;108205;1273;22455;-56
2022/07/04 07:15:46;;;;;;;10.40;4.70;;;;;;;25.87;47.99;99694.89;108142;1274;23503;-56
2022/07/04 07:18:13;;;;;;;6.80;4.80;;;;;;;25.86;48.33;99694.86;107923;1274;138297;-57
2022/07/04 07:20:40;;;;;;;5.10;4.60;;;;;;;25.88;47.89;99699.92;108093;1274;24879;-56
2022/07/04 07:23:06;;;;;;;5.90;4.10;;;;;;;25.86;46.75;99697.26;108028;1274;137570;-57
2022/07/04 07:25:33;;;;;;;5.90;3.90;;;;;;;25.87;46.66;99697.99;108111;1273;22529;-56
2022/07/04 07:28:01;;;;;;;6.40;4.10;;;;;;;25.91;46.76;99697.89;108144;1274;22709;-56
2022/07/04 07:30:27;;;;;;;5.00;4.50;;;;;;;25.97;46.56;99696.86;108018;1274;138873;-56
2022/07/04 07:32:54;;;;;;;4.40;3.60;;;;;;;26.02;46.03;99697.16;108117;1273;22498;-56
2022/07/04 07:35:21;;;;;;;6.20;4.30;;;;;;;26.08;46.60;99699.40;108073;1274;138436;-56
2022/07/04 07:37:48;;;;;;;6.00;3.80;;;;;;;26.10;46.56;99702.64;108112;1274;22420;-55
2022/07/04 07:40:15;;;;;;;5.00;3.70;;;;;;;26.15;46.25;99702.27;108098;1274;22418;-56
2022/07/04 07:42:42;;;;;;;5.80;3.70;;;;;;;26.16;45.07;99697.20;108041;1274;139775;-55
2022/07/04 07:45:09;;;;;;;5.00;4.20;;;;;;;26.13;45.05;99697.77;108132;1273;23095;-56
2022/07/04 07:47:36;;;;;;;5.90;4.20;;;;;;;26.12;46.01;99700.91;108051;1273;137483;-55
2022/07/04 07:50:04;;;;;;;5.70;4.40;;;;;;;26.13;46.67;99700.63;108161;1273;23639;-55
2022/07/04 07:52:31;;;;;;;5.90;4.30;;;;;;;26.15;46.74;99702.20;108052;1274;139759;-55
2022/07/04 07:54:57;;;;;;;7.20;4.20;;;;;;;26.19;46.91;99704.48;108164;1274;22509;-55
2022/07/04 07:57:28;;;;;;;4.60;3.80;;;;;;;26.21;46.42;99702.23;107979;1274;22524;-55
2022/07/04 07:59:55;;;;;;;4.60;4.10;;;;;;;26.22;46.08;99696.98;108081;1274;138109;-56
2022/07/04 08:05:08;;;;;;;7.70;4.20;;;;;;;26.26;45.74;99701.23;107997;1274;138056;-56
2022/07/04 08:07:38;;;;;;;6.20;4.40;;;;;;;26.24;45.48;99693.28;108149;1274;22439;-55
2022/07/04 08:10:05;;;;;;;8.40;4.20;;;;;;;26.22;45.01;99693.62;108188;1274;23385;-55
2022/07/04 08:12:32;;;;;;;7.60;4.30;;;;;;;26.20;45.13;99691.34;107998;1274;140843;-55
2022/07/04 08:14:58;;;;;;;11.80;4.20;;;;;;;26.17;45.33;99690.45;108136;1273;22523;-57
2022/07/04 08:17:32;;;;;;;5.90;4.00;;;;;;;26.20;44.80;99690.20;107985;1273;139106;-59
2022/07/04 08:19:59;;;;;;;6.30;3.40;;;;;;;26.25;45.00;99694.73;108132;1273;22401;-57
2022/07/04 08:22:26;;;;;;;5.50;3.90;;;;;;;26.32;45.99;99690.96;108019;1273;139639;-61
2022/07/04 08:24:53;;;;;;;9.60;4.80;;;;;;;26.37;45.37;99684.17;108202;1273;22611;-58
2022/07/04 08:27:20;;;;;;;8.30;5.00;;;;;;;26.42;45.25;99682.83;108107;1273;24682;-58
2022/07/04 08:29:47;;;;;;;73.10;10.40;;;;;;;26.47;45.29;99676.98;107938;1274;138260;-58
2022/07/04 08:32:14;;;;;;;7.10;3.10;;;;;;;26.51;44.14;99684.61;108170;1273;22486;-58
2022/07/04 08:34:42;;;;;;;4.80;3.80;;;;;;;26.54;44.48;99678.45;108011;1273;137674;-58
2022/07/04 08:37:09;;;;;;;9.20;4.00;;;;;;;26.60;45.03;99677.80;108104;1274;22467;-58
2022/07/04 08:39:36;;;;;;;8.00;3.60;;;;;;;26.66;44.07;99676.52;108236;1274;22539;-58
2022/07/04 08:42:06;;;;;;;16.10;13.60;;;;;;;26.71;43.95;99677.50;108016;1273;138594;-59
2022/07/04 08:44:35;;;;;;;6.10;4.40;;;;;;;26.72;42.96;99676.55;108152;1273;23813;-59
2022/07/04 08:47:02;;;;;;;7.60;3.70;;;;;;;26.69;43.64;99671.79;107870;1274;137795;-59
2022/07/04 08:49:31;;;;;;;3.50;3.20;;;;;;;26.72;43.81;99674.02;108035;1274;24012;-59
2022/07/04 08:51:59;;;;;;;6.20;3.60;;;;;;;26.77;43.22;99672.86;108049;1273;23660;-60
2022/07/04 08:59:58;;;;;;;6.70;3.70;;;;;;;26.89;43.88;99669.56;107994;1273;137786;-57
2022/07/04 09:02:27;;;;;;;5.50;4.00;;;;;;;26.93;44.22;99669.92;108098;1273;22414;-58
2022/07/04 09:04:54;;;;;;;15.60;9.00;;;;;;;26.98;43.55;99668.13;107760;1274;140580;-55
2022/07/04 09:07:22;;;;;;;6.10;4.90;;;;;;;27.04;44.05;99667.30;108249;1273;22474;-56
2022/07/04 09:09:49;;;;;;;5.20;3.50;;;;;;;27.09;43.59;99667.44;108251;1273;22500;-56
2022/07/04 09:12:18;;;;;;;4.20;3.40;;;;;;;27.13;43.26;99672.13;108190;1273;138450;-56
2022/07/04 09:14:45;;;;;;;5.50;3.70;;;;;;;27.15;42.46;99673.06;108230;1273;22536;-56
2022/07/04 09:17:12;;;;;;;4.90;3.80;;;;;;;27.18;42.39;99669.45;108076;1273;139376;-56
2022/07/04 09:19:39;;;;;;;5.60;3.40;;;;;;;27.19;42.19;99665.41;108109;1273;23335;-57
2022/07/04 09:22:11;;;;;;;13.60;4.60;;;;;;;27.21;41.64;99670.90;108146;1273;22657;-57
2022/07/04 09:24:54;;;;;;;6.60;4.60;;;;;;;27.20;41.60;99667.36;108000;1273;137841;-55
2022/07/04 09:27:35;;;;;;;6.40;5.70;;;;;;;27.18;41.82;99668.89;108023;1273;22460;-56
2022/07/04 09:30:03;;;;;;;11.70;4.20;;;;;;;27.14;41.53;99666.87;107959;1273;137667;-56
2022/07/04 09:32:40;;;;;;;5.90;3.70;;;;;;;27.10;41.86;99663.46;108132;1273;23318;-57
2022/07/04 09:35:37;;;;;;;8.60;4.50;;;;;;;27.08;41.85;99665.80;108052;1273;138131;-57
2022/07/04 09:38:04;;;;;;;6.10;3.70;;;;;;;27.10;42.71;99667.29;108116;1273;23316;-57
2022/07/04 09:41:24;;;;;;;8.00;3.50;;;;;;;27.11;41.57;99670.51;108030;1273;138294;-57
2022/07/04 09:43:23;;;;;;;4.90;3.30;;;;;;;27.13;40.94;99663.73;108132;1273;22428;-57
2022/07/04 09:45:58;;;;;;;8.20;3.70;;;;;;;27.14;40.46;99662.48;108055;1274;22457;-57
2022/07/04 09:48:26;;;;;;;4.90;3.80;;;;;;;27.18;39.86;99667.38;107994;1274;138065;-57
2022/07/04 09:50:52;;;;;;;13.90;9.30;;;;;;;27.17;39.90;99665.27;108090;1273;22548;-56
2022/07/04 09:53:19;;;;;;;10.90;4.10;;;;;;;27.12;40.54;99662.05;107966;1273;138419;-57
2022/07/04 09:55:46;;;;;;;5.70;4.80;;;;;;;27.06;41.36;99659.05;107821;1272;22477;-57
2022/07/04 09:58:13;;;;;;;4.80;3.70;;;;;;;27.04;41.75;99656.66;108112;1273;22392;-57
2022/07/04 10:00:42;;;;;;;4.50;3.80;;;;;;;27.03;41.77;99652.89;108014;1272;138656;-58
2022/07/04 10:03:22;;;;;;;7.50;3.80;;;;;;;27.04;42.24;99654.18;108301;1273;22446;-56
2022/07/04 10:06:01;;;;;;;20.50;4.40;;;;;;;27.07;42.85;99651.39;108184;1273;140411;-56
2022/07/04 10:08:28;;;;;;;12.20;5.30;;;;;;;27.12;42.55;99650.46;108316;1273;22409;-56
2022/07/04 10:10:59;;;;;;;10.50;5.00;;;;;;;27.18;42.57;99649.08;108000;1274;140152;-56
2022/07/04 10:13:26;;;;;;;6.70;3.90;;;;;;;27.24;42.87;99645.54;108156;1273;22467;-56
2022/07/04 10:15:53;;;;;;;8.10;4.30;;;;;;;27.27;43.50;99644.48;108227;1273;22373;-56
2022/07/04 10:18:21;;;;;;;6.90;4.30;;;;;;;27.30;43.40;99644.07;108085;1272;138752;-56
2022/07/04 10:20:51;;;;;;;18.60;16.70;;;;;;;27.33;42.86;99642.13;108222;1273;23049;-56
2022/07/04 10:23:19;;;;;;;15.10;10.40;;;;;;;27.35;43.04;99639.85;108203;1273;140526;-58
2022/07/04 10:25:46;;;;;;;5.40;4.90;;;;;;;27.38;42.80;99637.04;107797;1273;22480;-58
2022/07/04 10:28:13;;;;;;;6.10;4.90;;;;;;;27.40;41.99;99635.10;107522;1273;22552;-61
2022/07/04 10:30:40;;;;;;;7.00;4.30;;;;;;;27.43;42.41;99638.81;107316;1274;137787;-62
2022/07/04 10:33:08;;;;;;;7.50;4.80;;;;;;;27.45;42.09;99635.73;107657;1273;22469;-61
2022/07/04 10:35:55;;;;;;;12.60;4.50;;;;;;;27.46;41.53;99631.92;107515;1273;138576;-61
2022/07/04 10:38:22;;;;;;;5.20;3.90;;;;;;;27.46;41.42;99632.73;107592;1273;23179;-61
2022/07/04 10:40:57;;;;;;;4.90;4.20;;;;;;;27.44;41.57;99631.48;107376;1273;138331;-61
2022/07/04 10:43:43;;;;;;;7.70;4.70;;;;;;;27.44;42.42;99634.60;107414;1273;22510;-61
2022/07/04 10:46:13;;;;;;;8.50;3.90;;;;;;;27.45;42.38;99631.04;107468;1274;22442;-60
2022/07/04 10:48:56;;;;;;;7.60;3.50;;;;;;;27.49;42.24;99625.27;107300;1273;137746;-60
2022/07/04 10:51:42;;;;;;;5.00;4.50;;;;;;;27.52;42.35;99617.59;107464;1273;22477;-60
2022/07/04 10:54:24;;;;;;;39.10;12.50;;;;;;;27.56;41.52;99609.28;107355;1273;138496;-59
2022/07/04 10:56:56;;;;;;;5.40;4.10;;;;;;;27.61;41.73;99611.38;107424;1273;23604;-59
2022/07/04 10:59:27;;;;;;;8.50;4.40;;;;;;;27.64;41.39;99612.91;107360;1273;138899;-60
2022/07/04 11:02:06;;;;;;;16.10;8.20;;;;;;;27.66;41.11;99616.71;107425;1273;24237;-60
2022/07/04 11:05:02;;;;;;;10.10;4.10;;;;;;;27.69;41.64;99618.13;107315;1273;138885;-59
2022/07/04 11:07:29;;;;;;;10.60;4.10;;;;;;;27.70;41.64;99613.73;107367;1273;22508;-59
2022/07/04 11:10:21;;;;;;;9.30;4.30;;;;;;;27.73;40.93;99612.36;107448;1273;22592;-59
2022/07/04 11:13:02;;;;;;;5.60;3.90;;;;;;;27.72;40.46;99613.69;107325;1273;138394;-59
2022/07/04 11:15:31;;;;;;;17.80;11.20;;;;;;;27.70;40.05;99608.68;107408;1273;23766;-57
2022/07/04 11:18:02;;;;;;;44.50;40.30;;;;;;;27.68;40.63;99605.95;107277;1273;138160;-57
2022/07/04 11:20:30;;;;;;;9.30;4.90;;;;;;;27.70;40.79;99601.98;107401;1273;24543;-55
2022/07/04 11:23:10;;;;;;;5.90;3.80;;;;;;;27.74;39.96;99598.44;107253;1273;138722;-56
2022/07/04 11:25:39;;;;;;;4.30;3.70;;;;;;;27.78;40.38;99594.77;107416;1273;23924;-55
2022/07/04 11:28:37;;;;;;;6.50;3.60;;;;;;;27.85;40.75;99592.17;107371;1273;22619;-56
2022/07/04 11:31:13;;;;;;;6.50;3.70;;;;;;;27.94;39.30;99594.98;107369;1273;22529;-56
2022/07/04 11:33:41;;;;;;;16.20;5.70;;;;;;;27.96;38.86;99588.23;107444;1273;22387;-56
2022/07/04 11:36:16;;;;;;;7.50;3.80;;;;;;;27.95;39.02;99584.77;107238;1274;138902;-56
2022/07/04 11:38:53;;;;;;;6.30;3.70;;;;;;;27.97;38.66;99586.08;107315;1273;22487;-57
2022/07/04 11:47:16;;;;;;;104.60;93.40;;;;;;;27.97;39.14;99581.35;107211;1273;138560;-57
2022/07/04 11:49:57;;;;;;;149.50;134.50;;;;;;;27.99;39.10;99576.59;107344;1273;22413;-58